Time;durP1;ratioP1;P1;durP2;ratioP2;P2;SDS_P1;SDS_P2;PMS_P1;PMS_P2;Temp;Humidity;BMP_temperature;BMP_pressure;BME280_temperature;BME280_humidity;BME280_pressure;Samples;Min_cycle;Max_cycle;Signal;HPM_P1;HPM_P2
2021/03/08 00:01:50;;;;;;;15.13;10.07;;;3.30;80.40;;;;;;5095961;29;20052;-65
2021/03/08 00:04:22;;;;;;;17.15;10.80;;;3.20;80.70;;;;;;5095707;29;20062;-65
2021/03/08 00:06:54;;;;;;;17.05;10.93;;;3.20;81.20;;;;;;5096075;29;20071;-64
2021/03/08 00:09:25;;;;;;;16.38;10.23;;;3.10;81.70;;;;;;5070180;29;20493;-64
2021/03/08 00:11:56;;;;;;;13.77;9.13;;;3.10;81.70;;;;;;5087550;29;20138;-64
2021/03/08 00:14:28;;;;;;;18.42;10.43;;;3.20;81.50;;;;;;5088141;29;20106;-64
2021/03/08 00:17:00;;;;;;;14.43;9.90;;;3.30;81.30;;;;;;5092431;29;20055;-65
2021/03/08 00:19:33;;;;;;;18.35;11.35;;;3.40;80.90;;;;;;5080022;29;20044;-64
2021/03/08 00:22:05;;;;;;;15.15;10.55;;;3.50;81.20;;;;;;5094092;29;20044;-65
2021/03/08 00:24:36;;;;;;;13.20;10.50;;;3.50;81.20;;;;;;5080033;29;20071;-65
2021/03/08 00:27:07;;;;;;;14.63;10.13;;;3.50;81.30;;;;;;5094219;29;20070;-65
2021/03/08 00:29:42;;;;;;;15.43;10.65;;;3.60;81.40;;;;;;5095390;29;20162;-65
2021/03/08 00:32:14;;;;;;;17.73;12.00;;;3.60;81.40;;;;;;5090650;29;20521;-64
2021/03/08 00:34:45;;;;;;;15.57;11.40;;;3.60;81.40;;;;;;5076882;29;20051;-65
2021/03/08 00:37:18;;;;;;;19.02;11.80;;;3.60;81.30;;;;;;5089202;29;20076;-66
2021/03/08 00:39:49;;;;;;;15.82;11.70;;;3.60;81.20;;;;;;5092808;29;20055;-66
2021/03/08 00:42:21;;;;;;;15.85;11.10;;;3.60;81.20;;;;;;5071097;29;20162;-64
2021/03/08 00:44:53;;;;;;;17.90;12.02;;;3.60;81.40;;;;;;5091647;29;20662;-65
2021/03/08 00:47:25;;;;;;;18.50;12.85;;;3.60;81.20;;;;;;5074623;29;20608;-64
2021/03/08 00:49:57;;;;;;;17.38;11.98;;;3.60;81.20;;;;;;5063125;29;20052;-65
2021/03/08 00:52:29;;;;;;;21.15;14.02;;;3.60;80.80;;;;;;5071310;29;20166;-65
2021/03/08 00:55:01;;;;;;;19.92;12.77;;;3.60;80.80;;;;;;5076244;29;20043;-65
2021/03/08 00:57:32;;;;;;;18.50;13.05;;;3.50;81.20;;;;;;5091689;29;20498;-66
2021/03/08 01:00:06;;;;;;;21.30;13.52;;;3.50;80.80;;;;;;5093355;29;20055;-65
2021/03/08 01:02:42;;;;;;;18.90;13.25;;;3.50;80.60;;;;;;5073014;29;20048;-65
2021/03/08 01:05:20;;;;;;;20.00;13.73;;;3.50;81.20;;;;;;5072888;29;20135;-65
2021/03/08 01:07:53;;;;;;;18.05;13.02;;;3.40;81.70;;;;;;5071759;29;20084;-65
2021/03/08 01:10:30;;;;;;;20.20;13.75;;;3.40;81.40;;;;;;5073632;29;20151;-65
2021/03/08 01:13:05;;;;;;;19.30;14.68;;;3.40;81.30;;;;;;5072919;29;20044;-65
2021/03/08 01:15:38;;;;;;;21.10;13.70;;;3.30;81.00;;;;;;5070951;29;20099;-64
2021/03/08 01:18:09;;;;;;;22.73;15.13;;;3.20;81.20;;;;;;5090404;29;20115;-65
2021/03/08 01:20:41;;;;;;;22.70;13.95;;;3.20;81.40;;;;;;5090413;29;20654;-66
2021/03/08 01:23:13;;;;;;;26.17;16.77;;;3.20;81.30;;;;;;5089957;29;20035;-65
2021/03/08 01:25:44;;;;;;;21.50;16.17;;;3.10;81.40;;;;;;5090610;29;20202;-65
2021/03/08 01:28:16;;;;;;;26.00;16.92;;;3.10;81.20;;;;;;5076147;29;20052;-65
2021/03/08 01:30:47;;;;;;;22.92;17.17;;;3.10;81.50;;;;;;5093808;29;20179;-65
2021/03/08 01:33:19;;;;;;;22.17;15.45;;;3.10;80.40;;;;;;5090408;29;20043;-65
2021/03/08 01:35:50;;;;;;;22.52;16.05;;;3.20;80.50;;;;;;5094246;29;20055;-66
2021/03/08 01:38:22;;;;;;;24.85;16.48;;;3.10;80.00;;;;;;5094398;29;20130;-65
2021/03/08 01:40:53;;;;;;;22.48;15.93;;;3.20;80.00;;;;;;5090812;29;20147;-65
2021/03/08 01:43:26;;;;;;;22.13;16.23;;;3.20;79.50;;;;;;5093947;29;20047;-66
2021/03/08 01:45:57;;;;;;;31.42;16.60;;;3.10;78.70;;;;;;5092798;29;20784;-64
2021/03/08 01:48:29;;;;;;;24.60;16.38;;;3.10;78.60;;;;;;5095125;29;20058;-66
2021/03/08 01:51:01;;;;;;;22.65;16.25;;;3.20;78.00;;;;;;5089977;29;20122;-65
2021/03/08 01:53:35;;;;;;;22.20;16.13;;;3.20;78.00;;;;;;5077098;29;20126;-64
2021/03/08 01:56:06;;;;;;;25.25;15.82;;;3.30;77.90;;;;;;5091906;29;20043;-64
2021/03/08 01:58:39;;;;;;;26.65;16.42;;;3.30;78.80;;;;;;5092453;29;20148;-65
2021/03/08 02:01:11;;;;;;;23.60;16.02;;;3.30;79.10;;;;;;5090449;29;20087;-65
2021/03/08 02:03:42;;;;;;;21.63;15.55;;;3.30;78.50;;;;;;5062714;29;20052;-65
2021/03/08 02:06:14;;;;;;;21.95;15.65;;;3.30;78.60;;;;;;5117147;23;20048;-64
2021/03/08 02:08:46;;;;;;;20.13;15.13;;;3.30;78.40;;;;;;5049800;29;20494;-65
2021/03/08 02:11:17;;;;;;;24.23;16.33;;;3.30;78.20;;;;;;5067367;29;20084;-65
2021/03/08 02:13:57;;;;;;;22.92;16.23;;;3.20;78.30;;;;;;5070388;29;20044;-66
2021/03/08 02:16:38;;;;;;;24.52;16.23;;;3.20;78.40;;;;;;5051042;29;20109;-64
2021/03/08 02:19:39;;;;;;;22.98;16.52;;;3.10;78.60;;;;;;5067315;29;20119;-65
2021/03/08 02:22:32;;;;;;;22.42;16.05;;;3.00;78.60;;;;;;4987161;29;20510;-65
2021/03/08 02:25:12;;;;;;;23.88;16.65;;;2.90;78.50;;;;;;5067739;29;20040;-65
2021/03/08 02:27:50;;;;;;;;;;;2.70;79.30;;;;;;5072212;29;20120;-65
2021/03/08 02:30:45;;;;;;;25.88;15.38;;;2.70;79.50;;;;;;5071378;29;19971;-65
2021/03/08 02:33:30;;;;;;;23.90;16.50;;;2.70;79.50;;;;;;5072889;29;20107;-65
2021/03/08 02:36:08;;;;;;;25.35;16.40;;;2.60;79.90;;;;;;5073822;29;20476;-66
2021/03/08 02:38:45;;;;;;;26.20;16.75;;;2.60;80.30;;;;;;5073616;29;20111;-65
2021/03/08 02:41:20;;;;;;;24.95;16.17;;;2.60;80.60;;;;;;5073179;29;20495;-66
2021/03/08 02:44:07;;;;;;;23.23;16.67;;;2.60;80.80;;;;;;5057295;29;20079;-65
2021/03/08 02:46:41;;;;;;;22.85;16.10;;;2.60;80.60;;;;;;5072105;29;20112;-65
2021/03/08 02:49:16;;;;;;;22.45;15.32;;;2.60;80.50;;;;;;5068974;29;20960;-67
2021/03/08 02:52:09;;;;;;;24.05;15.85;;;2.60;80.40;;;;;;5074753;29;20076;-66
2021/03/08 02:54:48;;;;;;;22.30;15.52;;;2.60;80.30;;;;;;5073431;29;20052;-65
2021/03/08 02:57:25;;;;;;;25.20;17.03;;;2.60;80.30;;;;;;5070226;29;20471;-66
2021/03/08 02:59:58;;;;;;;22.52;15.45;;;2.50;80.80;;;;;;5072973;29;20044;-65
2021/03/08 03:02:29;;;;;;;26.85;15.38;;;2.50;81.00;;;;;;5056653;29;20438;-65
2021/03/08 03:05:06;;;;;;;22.33;15.20;;;2.40;80.90;;;;;;5075331;29;20051;-65
2021/03/08 03:07:42;;;;;;;23.80;16.00;;;2.40;80.80;;;;;;5073999;29;20529;-64
2021/03/08 03:10:16;;;;;;;22.60;16.30;;;2.40;80.50;;;;;;5074111;29;20127;-67
2021/03/08 03:12:47;;;;;;;23.13;15.13;;;2.40;80.50;;;;;;5073389;29;20108;-67
2021/03/08 03:15:19;;;;;;;24.75;15.35;;;2.40;80.20;;;;;;5072595;29;20138;-65
2021/03/08 03:17:54;;;;;;;22.65;15.82;;;2.40;79.60;;;;;;5074260;29;20143;-65
2021/03/08 03:20:27;;;;;;;20.85;15.18;;;2.40;79.50;;;;;;5073626;29;20044;-64
2021/03/08 03:23:00;;;;;;;23.15;15.85;;;2.40;79.90;;;;;;5074272;29;20076;-64
2021/03/08 03:25:31;;;;;;;21.83;15.50;;;2.40;80.10;;;;;;5073254;29;20111;-64
2021/03/08 03:28:03;;;;;;;25.70;17.17;;;2.40;80.40;;;;;;5074849;29;20071;-65
2021/03/08 03:30:35;;;;;;;26.13;17.38;;;2.30;80.90;;;;;;5071963;29;20130;-64
2021/03/08 03:33:07;;;;;;;21.80;14.30;;;2.40;81.20;;;;;;5074050;29;20052;-65
2021/03/08 03:35:39;;;;;;;25.05;15.65;;;2.40;81.00;;;;;;5073600;29;20058;-65
2021/03/08 03:38:13;;;;;;;21.85;16.02;;;2.50;80.60;;;;;;5073006;29;20518;-65
2021/03/08 03:40:44;;;;;;;24.85;15.98;;;2.60;80.30;;;;;;5067805;29;20077;-65
2021/03/08 03:43:16;;;;;;;24.10;15.95;;;2.60;80.60;;;;;;5074589;29;20887;-65
2021/03/08 03:45:47;;;;;;;22.17;15.25;;;2.60;80.10;;;;;;5076899;29;20052;-65
2021/03/08 03:48:19;;;;;;;21.33;15.18;;;2.60;80.30;;;;;;5071614;29;20094;-65
2021/03/08 03:50:51;;;;;;;26.55;15.80;;;2.60;80.00;;;;;;5071075;29;20052;-65
2021/03/08 03:53:23;;;;;;;24.40;16.17;;;2.60;80.10;;;;;;5048938;29;20048;-66
2021/03/08 03:55:55;;;;;;;22.52;15.75;;;2.60;80.30;;;;;;5073986;29;20222;-64
2021/03/08 03:58:27;;;;;;;23.63;15.82;;;2.60;79.90;;;;;;5064620;29;20052;-65
2021/03/08 04:01:19;;;;;;;21.45;14.93;;;2.60;80.30;;;;;;5072463;29;20111;-66
2021/03/08 04:04:01;;;;;;;20.48;14.98;;;2.60;80.60;;;;;;5075007;29;20496;-65
2021/03/08 04:06:37;;;;;;;22.73;15.70;;;2.60;80.50;;;;;;5074549;29;20040;-64
2021/03/08 04:09:11;;;;;;;23.45;15.57;;;2.60;80.10;;;;;;5074053;29;20124;-64
2021/03/08 04:11:43;;;;;;;20.95;15.65;;;2.60;80.10;;;;;;5076958;29;20052;-65
2021/03/08 04:14:16;;;;;;;21.67;15.23;;;2.60;80.20;;;;;;5074952;29;20491;-65
2021/03/08 04:16:51;;;;;;;21.23;15.50;;;2.60;79.80;;;;;;5076544;29;20047;-64
2021/03/08 04:19:27;;;;;;;20.67;15.05;;;2.60;80.30;;;;;;5075030;29;20048;-64
2021/03/08 04:22:05;;;;;;;22.92;16.40;;;2.50;80.80;;;;;;5073791;29;20048;-65
2021/03/08 04:24:39;;;;;;;22.55;15.68;;;2.50;81.00;;;;;;5074667;29;20095;-65
2021/03/08 04:27:13;;;;;;;22.92;15.50;;;2.50;81.10;;;;;;5068766;29;20055;-65
2021/03/08 04:29:45;;;;;;;23.40;15.90;;;2.60;80.90;;;;;;5071053;29;20123;-65
2021/03/08 04:32:21;;;;;;;23.65;15.90;;;2.60;81.30;;;;;;5073684;29;20159;-66
2021/03/08 04:34:53;;;;;;;24.05;16.13;;;2.50;81.00;;;;;;5075870;29;20431;-65
2021/03/08 04:37:25;;;;;;;22.08;14.77;;;2.60;81.40;;;;;;5075214;29;20100;-65
2021/03/08 04:39:57;;;;;;;21.13;15.45;;;2.50;80.70;;;;;;5075562;29;20135;-65
2021/03/08 04:42:29;;;;;;;19.80;14.68;;;2.60;80.70;;;;;;5076840;29;20052;-65
2021/03/08 04:45:01;;;;;;;22.65;14.95;;;2.60;81.00;;;;;;5057384;29;20056;-65
2021/03/08 04:47:34;;;;;;;22.88;15.10;;;2.60;80.70;;;;;;5075414;29;20817;-65
2021/03/08 04:50:07;;;;;;;21.38;14.88;;;2.60;80.40;;;;;;5074591;29;20068;-65
2021/03/08 04:52:42;;;;;;;22.85;14.98;;;2.60;80.60;;;;;;5077031;29;20099;-65
2021/03/08 04:55:14;;;;;;;23.65;15.80;;;2.70;80.60;;;;;;5072024;29;20151;-64
2021/03/08 04:57:45;;;;;;;20.70;15.48;;;2.70;81.10;;;;;;5056569;29;20040;-64
2021/03/08 05:00:18;;;;;;;24.27;15.80;;;2.60;81.30;;;;;;5075477;29;20660;-66
2021/03/08 05:02:53;;;;;;;21.38;15.07;;;2.70;81.10;;;;;;5077169;29;20147;-65
2021/03/08 05:05:26;;;;;;;21.40;15.48;;;2.70;81.00;;;;;;5075639;29;20135;-65
2021/03/08 05:08:06;;;;;;;21.55;14.80;;;2.70;80.80;;;;;;5076198;29;20302;-66
2021/03/08 05:10:39;;;;;;;22.63;15.30;;;2.70;81.30;;;;;;5075368;29;20216;-65
2021/03/08 05:13:12;;;;;;;23.20;15.40;;;2.70;81.40;;;;;;5077426;29;20119;-65
2021/03/08 05:15:44;;;;;;;20.80;14.88;;;2.70;81.10;;;;;;5075175;29;20073;-65
2021/03/08 05:18:18;;;;;;;22.75;16.20;;;2.70;80.80;;;;;;5077574;29;20048;-65
2021/03/08 05:20:50;;;;;;;22.75;16.08;;;2.80;80.50;;;;;;5075063;29;20047;-65
2021/03/08 05:23:22;;;;;;;23.83;15.77;;;2.80;80.80;;;;;;5076974;29;20536;-65
2021/03/08 05:25:54;;;;;;;23.10;15.75;;;2.80;80.80;;;;;;5074657;29;20068;-65
2021/03/08 05:28:26;;;;;;;20.70;15.88;;;2.80;80.60;;;;;;5072863;29;20052;-65
2021/03/08 05:30:59;;;;;;;21.38;14.75;;;2.90;80.60;;;;;;5075891;29;20142;-65
2021/03/08 05:33:33;;;;;;;24.38;16.77;;;2.90;80.50;;;;;;5076205;29;20556;-65
2021/03/08 05:36:07;;;;;;;22.35;16.13;;;2.90;80.50;;;;;;5074010;29;20131;-66
2021/03/08 05:38:39;;;;;;;23.35;16.67;;;2.90;80.60;;;;;;5076091;29;20052;-64
2021/03/08 05:41:23;;;;;;;23.67;15.73;;;2.80;80.80;;;;;;5071961;29;20351;-66
2021/03/08 05:44:00;;;;;;;23.88;17.30;;;2.90;80.90;;;;;;5077052;29;20840;-65
2021/03/08 05:46:53;;;;;;;21.58;15.35;;;2.90;81.20;;;;;;5057055;29;20135;-65
2021/03/08 05:49:52;;;;;;;23.58;15.77;;;2.90;80.80;;;;;;5066261;29;20418;-65
2021/03/08 05:53:01;;;;;;;24.58;17.52;;;2.90;80.60;;;;;;5070883;29;20388;-65
2021/03/08 05:56:11;;;;;;;23.23;16.27;;;2.90;80.30;;;;;;5072192;29;20055;-66
2021/03/08 05:58:46;;;;;;;;;;;2.90;80.30;;;;;;5071941;29;20036;-68
2021/03/08 06:01:26;;;;;;;25.02;16.65;;;2.90;80.40;;;;;;5064898;29;20408;-65
2021/03/08 06:04:18;;;;;;;22.88;16.30;;;2.90;80.00;;;;;;5058527;29;20056;-66
2021/03/08 06:07:10;;;;;;;24.92;17.50;;;3.00;80.00;;;;;;5055290;29;20083;-66
2021/03/08 06:10:05;;;;;;;24.15;17.70;;;2.90;80.10;;;;;;5058236;29;20047;-66
2021/03/08 06:12:38;;;;;;;26.17;15.70;;;2.90;80.40;;;;;;5058064;29;20081;-66
2021/03/08 06:15:11;;;;;;;24.10;16.63;;;2.80;80.70;;;;;;5058545;29;20073;-65
2021/03/08 06:17:44;;;;;;;25.40;18.48;;;2.70;79.70;;;;;;5060053;29;20048;-65
2021/03/08 06:20:18;;;;;;;26.63;18.83;;;2.70;79.60;;;;;;5061602;29;20119;-65
2021/03/08 06:22:50;;;;;;;25.05;17.83;;;2.60;78.60;;;;;;5061047;29;20050;-65
2021/03/08 06:25:22;;;;;;;27.13;18.17;;;2.50;78.90;;;;;;5062409;29;20125;-65
2021/03/08 06:27:54;;;;;;;35.47;24.40;;;2.50;78.80;;;;;;5058678;29;20063;-66
2021/03/08 06:30:27;;;;;;;30.55;19.75;;;2.60;78.70;;;;;;5056876;29;20055;-65
2021/03/08 06:32:58;;;;;;;26.40;19.67;;;2.70;80.40;;;;;;5044101;29;20041;-64
2021/03/08 06:35:30;;;;;;;26.33;19.10;;;2.70;80.80;;;;;;5058088;29;20048;-66
2021/03/08 06:38:01;;;;;;;26.20;18.70;;;2.70;80.80;;;;;;5068234;29;20097;-66
2021/03/08 06:40:33;;;;;;;26.92;18.48;;;2.70;79.50;;;;;;5054370;29;20047;-66
2021/03/08 06:43:04;;;;;;;25.67;18.73;;;2.60;80.10;;;;;;5054464;29;20060;-66
2021/03/08 06:45:36;;;;;;;23.95;18.60;;;2.60;80.70;;;;;;5072436;29;20090;-67
2021/03/08 06:48:09;;;;;;;25.50;18.65;;;2.50;80.70;;;;;;5069883;29;20048;-66
2021/03/08 06:50:40;;;;;;;24.65;17.48;;;2.60;80.00;;;;;;5064892;29;20040;-66
2021/03/08 06:53:29;;;;;;;24.40;17.88;;;2.60;79.80;;;;;;5070312;29;20032;-66
2021/03/08 06:56:20;;;;;;;24.77;18.30;;;2.70;80.10;;;;;;5068393;29;20065;-66
2021/03/08 06:59:14;;;;;;;24.15;17.10;;;2.70;79.90;;;;;;5066563;29;20048;-66
2021/03/08 07:01:46;;;;;;;27.17;18.50;;;2.70;81.40;;;;;;5067208;29;20177;-68
2021/03/08 07:04:25;;;;;;;25.17;17.92;;;2.80;81.30;;;;;;5043555;29;20058;-66
2021/03/08 07:07:07;;;;;;;24.58;18.17;;;2.80;80.70;;;;;;5072840;29;20055;-66
2021/03/08 07:09:50;;;;;;;25.00;17.38;;;2.90;80.60;;;;;;5076437;29;20847;-66
2021/03/08 07:12:21;;;;;;;24.55;18.45;;;3.00;80.40;;;;;;5074219;29;20064;-66
2021/03/08 07:15:05;;;;;;;27.50;19.15;;;3.00;80.10;;;;;;5073864;29;20051;-66
2021/03/08 07:17:37;;;;;;;25.35;18.25;;;3.10;80.10;;;;;;5055265;29;20054;-66
2021/03/08 07:20:12;;;;;;;29.15;20.38;;;3.20;79.80;;;;;;5076123;29;20768;-66
2021/03/08 07:22:45;;;;;;;30.42;19.90;;;3.20;79.50;;;;;;5076271;29;20108;-66
2021/03/08 07:25:32;;;;;;;24.80;17.98;;;3.30;79.90;;;;;;5073733;29;20099;-66
2021/03/08 07:28:04;;;;;;;29.50;20.38;;;3.30;80.00;;;;;;5074050;29;20052;-65
2021/03/08 07:30:38;;;;;;;28.33;19.95;;;3.40;80.00;;;;;;5055511;29;20131;-66
2021/03/08 07:33:11;;;;;;;30.38;21.58;;;3.50;80.30;;;;;;5074834;29;20159;-66
2021/03/08 07:35:47;;;;;;;27.70;18.98;;;3.50;79.70;;;;;;5074154;29;20577;-66
2021/03/08 07:38:34;;;;;;;24.58;18.45;;;3.60;78.80;;;;;;5073869;29;20068;-66
2021/03/08 07:41:15;;;;;;;26.98;19.23;;;3.70;78.30;;;;;;5071359;29;20502;-66
2021/03/08 07:43:49;;;;;;;28.73;19.50;;;3.80;78.70;;;;;;5074769;29;20119;-66
2021/03/08 07:46:30;;;;;;;24.90;19.15;;;3.80;78.60;;;;;;5072047;29;20056;-66
2021/03/08 07:49:06;;;;;;;28.60;20.30;;;3.90;78.40;;;;;;5077057;29;20067;-66
2021/03/08 07:52:01;;;;;;;28.20;20.27;;;4.00;78.20;;;;;;5072449;29;20481;-66
2021/03/08 07:54:54;;;;;;;27.17;20.08;;;4.10;77.50;;;;;;5076780;29;20068;-66
2021/03/08 07:57:28;;;;;;;23.67;18.95;;;4.20;77.50;;;;;;5061150;29;20048;-67
2021/03/08 07:59:59;;;;;;;28.63;19.38;;;4.30;77.50;;;;;;5076885;29;20067;-66
2021/03/08 08:02:30;;;;;;;26.63;19.38;;;4.30;76.80;;;;;;5077204;29;20470;-67
2021/03/08 08:05:07;;;;;;;25.90;19.33;;;4.40;77.60;;;;;;5076541;29;20075;-66
2021/03/08 08:07:40;;;;;;;31.13;22.20;;;4.50;75.90;;;;;;5078409;29;20549;-69
2021/03/08 08:10:16;;;;;;;31.67;22.45;;;4.50;74.30;;;;;;5077312;29;20044;-66
2021/03/08 08:12:49;;;;;;;27.98;20.05;;;4.50;74.30;;;;;;5078036;29;20068;-66
2021/03/08 08:15:23;;;;;;;26.50;19.23;;;4.60;74.60;;;;;;5076501;29;20573;-66
2021/03/08 08:17:58;;;;;;;28.55;19.77;;;4.60;75.30;;;;;;5077600;29;20071;-66
2021/03/08 08:20:30;;;;;;;24.42;18.52;;;4.60;75.30;;;;;;5076543;29;20104;-66
2021/03/08 08:23:03;;;;;;;27.10;19.40;;;4.70;75.40;;;;;;5077745;29;20127;-66
2021/03/08 08:25:36;;;;;;;24.90;18.02;;;4.80;75.40;;;;;;5075044;29;20126;-66
2021/03/08 08:28:08;;;;;;;26.98;19.80;;;4.90;75.40;;;;;;5076460;29;20052;-66
2021/03/08 08:30:40;;;;;;;22.67;18.10;;;4.90;75.20;;;;;;5074182;29;20565;-67
2021/03/08 08:33:27;;;;;;;24.35;18.17;;;5.00;73.60;;;;;;5077054;29;20044;-66
2021/03/08 08:36:14;;;;;;;25.33;17.95;;;5.00;73.90;;;;;;5075616;29;20084;-66
2021/03/08 08:38:54;;;;;;;22.67;17.88;;;5.10;74.10;;;;;;5077773;29;20068;-66
2021/03/08 08:41:27;;;;;;;25.25;18.67;;;5.10;73.40;;;;;;5075552;29;20053;-65
2021/03/08 08:44:12;;;;;;;23.25;18.55;;;5.00;74.40;;;;;;5077506;29;20044;-66
2021/03/08 08:46:46;;;;;;;22.63;17.42;;;5.10;75.20;;;;;;5072189;29;20079;-67
2021/03/08 08:49:19;;;;;;;22.58;18.60;;;5.20;74.50;;;;;;5076867;29;20653;-65
2021/03/08 08:51:54;;;;;;;25.67;18.75;;;5.20;74.40;;;;;;5057168;29;20059;-66
2021/03/08 08:54:32;;;;;;;24.77;18.98;;;5.20;73.70;;;;;;5075129;29;20115;-66
2021/03/08 08:57:03;;;;;;;24.00;19.30;;;5.30;74.00;;;;;;5074808;29;20048;-66
2021/03/08 08:59:37;;;;;;;24.73;18.95;;;5.40;73.40;;;;;;5075901;29;20052;-66
2021/03/08 09:02:16;;;;;;;23.08;19.63;;;5.50;73.30;;;;;;5075969;29;20734;-66
2021/03/08 09:04:48;;;;;;;24.35;19.80;;;5.70;72.40;;;;;;5076950;29;20099;-66
2021/03/08 09:07:20;;;;;;;24.73;19.63;;;5.70;72.90;;;;;;5058735;29;20809;-66
2021/03/08 09:09:54;;;;;;;25.63;20.05;;;5.80;71.00;;;;;;5077090;29;20075;-68
2021/03/08 09:12:43;;;;;;;25.15;19.60;;;6.00;71.90;;;;;;5076695;29;20056;-67
2021/03/08 09:15:24;;;;;;;22.60;18.98;;;6.30;70.70;;;;;;5075693;29;20553;-67
2021/03/08 09:18:03;;;;;;;23.60;18.48;;;6.40;70.00;;;;;;5076643;29;20036;-66
2021/03/08 09:20:36;;;;;;;23.15;18.95;;;6.60;68.70;;;;;;5073762;29;20163;-67
2021/03/08 09:23:23;;;;;;;26.58;19.95;;;6.80;67.90;;;;;;5076205;29;20522;-66
2021/03/08 09:26:00;;;;;;;23.00;18.52;;;6.80;68.20;;;;;;5075361;29;20220;-66
2021/03/08 09:28:32;;;;;;;21.98;18.50;;;6.70;67.50;;;;;;5077396;29;20052;-66
2021/03/08 09:31:03;;;;;;;24.73;18.70;;;6.70;66.60;;;;;;5075484;29;20048;-68
2021/03/08 09:33:36;;;;;;;23.60;18.55;;;6.70;65.90;;;;;;5072476;29;20500;-66
2021/03/08 09:36:21;;;;;;;22.92;17.90;;;6.70;65.00;;;;;;5075000;29;20187;-66
2021/03/08 09:38:53;;;;;;;24.90;20.15;;;6.80;65.40;;;;;;5076695;29;20048;-68
2021/03/08 09:41:28;;;;;;;24.77;19.23;;;6.80;65.80;;;;;;5074231;29;20483;-66
2021/03/08 09:44:00;;;;;;;25.42;19.40;;;7.00;65.50;;;;;;5044548;29;20048;-67
2021/03/08 09:46:32;;;;;;;23.65;19.33;;;7.00;64.10;;;;;;5057639;29;20076;-66
2021/03/08 09:49:04;;;;;;;22.83;17.80;;;7.00;64.00;;;;;;5074922;29;20071;-66
2021/03/08 09:51:40;;;;;;;23.77;18.75;;;7.00;62.60;;;;;;5074751;29;20090;-66
2021/03/08 09:54:12;;;;;;;24.88;19.00;;;7.00;62.40;;;;;;5076265;29;20557;-66
2021/03/08 09:56:43;;;;;;;21.90;18.45;;;7.00;62.40;;;;;;5073765;29;20542;-66
2021/03/08 09:59:15;;;;;;;21.48;17.95;;;7.00;62.30;;;;;;5075700;29;20135;-66
2021/03/08 10:01:50;;;;;;;22.00;18.00;;;7.10;62.30;;;;;;5073619;29;20460;-67
2021/03/08 10:04:22;;;;;;;21.92;18.63;;;7.20;62.80;;;;;;5075962;29;20471;-66
2021/03/08 10:07:05;;;;;;;21.65;18.13;;;7.30;62.90;;;;;;5056449;29;20139;-67
2021/03/08 10:09:36;;;;;;;21.02;18.50;;;7.60;62.60;;;;;;5062922;29;20067;-66
2021/03/08 10:12:08;;;;;;;21.50;18.15;;;7.80;61.20;;;;;;5073424;29;20053;-66
2021/03/08 10:14:40;;;;;;;24.67;18.08;;;8.10;61.80;;;;;;5076043;29;20084;-66
2021/03/08 10:17:16;;;;;;;21.10;18.25;;;8.30;60.00;;;;;;5072824;29;20053;-66
2021/03/08 10:19:59;;;;;;;22.20;18.33;;;8.40;58.70;;;;;;5075154;29;20048;-66
2021/03/08 10:22:32;;;;;;;21.77;18.23;;;8.50;58.80;;;;;;5071116;29;20048;-66
2021/03/08 10:25:19;;;;;;;21.27;18.40;;;8.50;57.90;;;;;;5075557;29;20107;-66
2021/03/08 10:27:57;;;;;;;23.00;17.23;;;8.60;58.70;;;;;;5073068;29;20138;-67
2021/03/08 10:30:31;;;;;;;21.88;17.98;;;8.80;58.70;;;;;;5056870;29;20079;-66
2021/03/08 10:33:07;;;;;;;19.20;17.20;;;9.00;58.70;;;;;;5073389;29;20099;-67
2021/03/08 10:35:47;;;;;;;20.30;17.77;;;9.10;57.40;;;;;;5074905;29;20091;-68
2021/03/08 10:38:38;;;;;;;20.10;17.63;;;9.20;56.50;;;;;;5075833;29;20054;-68
2021/03/08 10:41:12;;;;;;;21.85;17.15;;;9.30;55.10;;;;;;5069666;29;20055;-66
2021/03/08 10:43:43;;;;;;;19.48;17.38;;;9.10;56.00;;;;;;5074341;29;20521;-67
2021/03/08 10:46:15;;;;;;;18.08;16.17;;;9.20;55.00;;;;;;5057038;29;20051;-67
2021/03/08 10:48:58;;;;;;;18.95;16.92;;;9.30;54.70;;;;;;5071699;29;20380;-66
2021/03/08 10:51:32;;;;;;;19.98;16.75;;;9.30;53.70;;;;;;5069857;29;20602;-67
2021/03/08 10:54:06;;;;;;;19.27;17.05;;;9.30;53.50;;;;;;5076594;29;20047;-67
2021/03/08 10:56:40;;;;;;;18.83;16.92;;;9.40;54.20;;;;;;5077249;29;20044;-67
2021/03/08 10:59:29;;;;;;;19.10;17.08;;;9.50;54.50;;;;;;5079048;29;20044;-69
2021/03/08 11:02:04;;;;;;;19.58;16.25;;;9.40;53.70;;;;;;5076675;29;20040;-66
2021/03/08 11:04:37;;;;;;;18.38;16.48;;;9.40;53.90;;;;;;5079340;29;20058;-66
2021/03/08 11:07:10;;;;;;;20.50;17.70;;;9.60;51.80;;;;;;5077893;29;20055;-66
2021/03/08 11:09:46;;;;;;;18.73;16.73;;;9.70;54.00;;;;;;5079401;29;20147;-66
2021/03/08 11:12:23;;;;;;;19.52;17.42;;;9.90;51.40;;;;;;5061385;29;20052;-66
2021/03/08 11:14:57;;;;;;;20.48;18.13;;;9.90;53.30;;;;;;5080163;29;20032;-66
2021/03/08 11:17:43;;;;;;;19.52;17.52;;;10.10;52.90;;;;;;5077140;29;20040;-67
2021/03/08 11:20:19;;;;;;;20.17;18.05;;;10.10;52.20;;;;;;5078233;29;20059;-66
2021/03/08 11:23:03;;;;;;;19.63;17.50;;;10.00;51.10;;;;;;5060651;29;20048;-68
2021/03/08 11:25:39;;;;;;;20.73;17.50;;;9.80;51.20;;;;;;5078284;29;20040;-67
2021/03/08 11:28:16;;;;;;;19.90;17.77;;;9.90;51.30;;;;;;5079040;29;20577;-67
2021/03/08 11:30:50;;;;;;;20.55;18.40;;;9.80;51.60;;;;;;5060087;29;20044;-67
2021/03/08 11:33:22;;;;;;;20.10;17.90;;;9.70;52.20;;;;;;5059798;29;20072;-67
2021/03/08 11:35:55;;;;;;;23.38;19.58;;;9.70;52.20;;;;;;5076769;29;20473;-67
2021/03/08 11:38:28;;;;;;;21.00;18.38;;;9.60;52.20;;;;;;5078537;29;20048;-68
2021/03/08 11:41:00;;;;;;;20.95;18.65;;;9.70;53.10;;;;;;5057712;29;20080;-66
2021/03/08 11:43:32;;;;;;;20.65;17.85;;;9.60;52.30;;;;;;5077490;29;20051;-66
2021/03/08 11:46:03;;;;;;;22.13;18.48;;;9.60;52.60;;;;;;5076681;29;20048;-66
2021/03/08 11:48:35;;;;;;;20.92;17.25;;;9.80;51.50;;;;;;5076407;29;20048;-66
2021/03/08 11:51:06;;;;;;;20.08;17.98;;;9.80;50.80;;;;;;5072460;29;20728;-68
2021/03/08 11:53:38;;;;;;;21.15;18.30;;;9.90;51.50;;;;;;5076965;29;20048;-67
2021/03/08 11:56:09;;;;;;;19.52;17.42;;;10.00;50.00;;;;;;5075783;29;20043;-66
2021/03/08 11:58:40;;;;;;;21.20;17.70;;;9.80;51.80;;;;;;5077608;29;20080;-67
2021/03/08 12:01:13;;;;;;;20.15;17.83;;;9.80;49.90;;;;;;5075429;29;20414;-67
2021/03/08 12:03:44;;;;;;;24.80;17.88;;;9.70;50.70;;;;;;5076252;29;20052;-68
2021/03/08 12:06:16;;;;;;;19.27;16.80;;;9.60;51.10;;;;;;5074873;29;20408;-66
2021/03/08 12:08:51;;;;;;;22.20;17.45;;;9.70;50.90;;;;;;5077304;29;20577;-66
2021/03/08 12:11:23;;;;;;;18.88;16.98;;;9.70;50.80;;;;;;5076345;29;20096;-66
2021/03/08 12:13:54;;;;;;;19.77;17.40;;;9.70;49.40;;;;;;5076626;29;20141;-66
2021/03/08 12:16:25;;;;;;;20.83;16.92;;;9.60;50.60;;;;;;5073652;29;20095;-67
2021/03/08 12:18:57;;;;;;;20.20;17.77;;;9.50;50.10;;;;;;5074291;29;20056;-66
2021/03/08 12:21:30;;;;;;;19.92;17.15;;;9.50;50.10;;;;;;5075934;29;20108;-66
2021/03/08 12:24:01;;;;;;;19.95;17.85;;;9.50;51.00;;;;;;5075186;29;20047;-66
2021/03/08 12:26:33;;;;;;;20.48;18.10;;;9.40;50.80;;;;;;5057650;29;20462;-67
2021/03/08 12:29:05;;;;;;;19.83;17.60;;;9.30;51.20;;;;;;5068772;29;20055;-69
2021/03/08 12:31:40;;;;;;;19.23;17.25;;;9.20;50.80;;;;;;5058947;29;20059;-66
2021/03/08 12:34:12;;;;;;;18.33;16.00;;;9.10;49.70;;;;;;5059915;29;20533;-66
2021/03/08 12:36:43;;;;;;;22.10;16.67;;;9.00;49.80;;;;;;5058597;29;20052;-66
2021/03/08 12:39:14;;;;;;;19.65;16.83;;;8.90;50.40;;;;;;5058486;29;20111;-66
2021/03/08 12:41:46;;;;;;;19.95;16.70;;;8.70;51.50;;;;;;5066003;29;20156;-66
2021/03/08 12:44:18;;;;;;;19.90;17.55;;;8.70;50.50;;;;;;5069918;29;20068;-66
2021/03/08 12:46:50;;;;;;;20.13;17.50;;;8.60;51.40;;;;;;5073511;29;20198;-66
2021/03/08 12:49:21;;;;;;;18.83;16.40;;;8.50;50.70;;;;;;5062337;29;20055;-67
2021/03/08 12:51:53;;;;;;;19.85;17.25;;;8.50;51.60;;;;;;5067563;29;20051;-66
2021/03/08 12:54:25;;;;;;;20.70;17.23;;;8.60;51.50;;;;;;5062996;29;21069;-67
2021/03/08 12:56:56;;;;;;;18.98;16.35;;;8.50;51.70;;;;;;5071090;29;20127;-66
2021/03/08 12:59:28;;;;;;;19.08;16.70;;;8.60;51.80;;;;;;5073562;29;20044;-66
2021/03/08 13:01:59;;;;;;;18.45;16.02;;;8.70;51.80;;;;;;5072465;29;20072;-66
2021/03/08 13:04:31;;;;;;;19.00;16.88;;;8.60;51.20;;;;;;5076428;29;20140;-68
2021/03/08 13:07:02;;;;;;;19.85;16.92;;;8.60;51.20;;;;;;5074223;29;20044;-66
2021/03/08 13:09:35;;;;;;;19.73;17.05;;;8.60;51.60;;;;;;5069235;29;20073;-65
2021/03/08 13:12:07;;;;;;;19.83;16.75;;;8.50;51.20;;;;;;5074336;29;20053;-65
2021/03/08 13:14:38;;;;;;;18.55;16.58;;;8.50;51.10;;;;;;5058030;29;20138;-66
2021/03/08 13:17:13;;;;;;;17.95;16.00;;;8.40;50.90;;;;;;5072382;29;21436;-66
2021/03/08 13:19:44;;;;;;;20.58;15.80;;;8.50;50.60;;;;;;5074172;29;20051;-66